createdAt,value
2017-07-20T00:00:37.151Z,1007.11
2017-07-20T00:01:46.112Z,1007.08
2017-07-20T00:02:55.073Z,1007.09
2017-07-20T00:04:04.026Z,1007.06
2017-07-20T00:05:12.982Z,1007
2017-07-20T00:06:21.935Z,1006.98
2017-07-20T00:07:30.902Z,1006.91
2017-07-20T00:08:39.861Z,1006.86
2017-07-20T00:09:48.856Z,1006.77
2017-07-20T00:10:57.821Z,1006.56
2017-07-20T00:12:07.115Z,1006.47
2017-07-20T00:13:16.077Z,1006.27
2017-07-20T00:14:25.040Z,1006.23
2017-07-20T00:15:34.644Z,1006.25
2017-07-20T00:16:43.608Z,1006.16
2017-07-20T00:17:52.572Z,1006.08
2017-07-20T00:19:01.549Z,1006.15
2017-07-20T00:20:10.834Z,1006.12
2017-07-20T00:21:19.821Z,1006.03
2017-07-20T00:22:28.782Z,1006.09
2017-07-20T00:23:37.742Z,1006.14
2017-07-20T00:24:46.699Z,1006.13
2017-07-20T00:25:55.656Z,1006.21
2017-07-20T00:27:04.618Z,1006.2
2017-07-20T00:28:13.584Z,1006.28
2017-07-20T00:29:22.542Z,1006.24
2017-07-20T00:30:31.508Z,1006.21
2017-07-20T00:31:40.465Z,1006.22
2017-07-20T00:32:49.421Z,1006.2
2017-07-20T00:33:58.375Z,1006.16
2017-07-20T00:35:07.335Z,1006.08
2017-07-20T00:36:16.289Z,1006
2017-07-20T00:37:25.252Z,1005.82
2017-07-20T00:38:34.528Z,1005.73
2017-07-20T00:39:43.490Z,1005.81
2017-07-20T00:40:52.445Z,1005.68
2017-07-20T00:42:01.412Z,1005.62
2017-07-20T00:43:10.366Z,1005.67
2017-07-20T00:44:19.331Z,1005.63
2017-07-20T00:45:28.289Z,1005.59
2017-07-20T00:46:37.249Z,1005.6
2017-07-20T00:47:46.213Z,1005.58
2017-07-20T00:48:55.174Z,1005.45
2017-07-20T00:50:04.132Z,1005.43
2017-07-20T00:51:13.083Z,1005.33
2017-07-20T00:52:22.383Z,1005.29
2017-07-20T00:53:31.338Z,1005.25
2017-07-20T00:54:40.291Z,1005.13
2017-07-20T00:55:49.239Z,1005.16
2017-07-20T00:56:58.202Z,1005.1
2017-07-20T00:58:07.156Z,1005.02
2017-07-20T00:59:16.106Z,1005.05
2017-07-20T01:00:25.067Z,1005.01
2017-07-20T01:01:34.020Z,1005.04
2017-07-20T01:02:42.983Z,1005.02
2017-07-20T01:03:51.950Z,1005.09
2017-07-20T01:05:00.918Z,1005.23
2017-07-20T01:06:09.875Z,1005.28
2017-07-20T01:07:18.842Z,1005.27
2017-07-20T01:08:28.125Z,1005.22
2017-07-20T01:09:37.084Z,1005.34
2017-07-20T01:10:46.038Z,1005.45
2017-07-20T01:11:54.998Z,1005.62
2017-07-20T01:13:03.964Z,1005.77
2017-07-20T01:14:13.236Z,1005.96
2017-07-20T01:15:22.191Z,1006.08
2017-07-20T01:16:31.145Z,1006.18
2017-07-20T01:17:40.105Z,1006.28
2017-07-20T01:18:49.065Z,1006.32
2017-07-20T01:19:58.024Z,1006.33
2017-07-20T01:21:07.307Z,1006.34
2017-07-20T01:22:16.591Z,1006.37
2017-07-20T01:23:25.546Z,1006.36
2017-07-20T01:24:34.508Z,1006.29
2017-07-20T01:25:43.464Z,1006.29
2017-07-20T01:26:52.423Z,1006.3
2017-07-20T01:28:01.386Z,1006.26
2017-07-20T01:29:10.352Z,1006.2
2017-07-20T01:30:19.309Z,1006.2
2017-07-20T01:31:28.274Z,1006.14
2017-07-20T01:32:37.232Z,1006.08
2017-07-20T01:33:46.187Z,1006.01
2017-07-20T01:34:55.148Z,1005.96
2017-07-20T01:36:04.105Z,1005.95
2017-07-20T01:37:13.064Z,1005.98
2017-07-20T01:38:22.014Z,1005.93
2017-07-20T01:39:30.968Z,1005.91
2017-07-20T01:40:39.933Z,1005.95
2017-07-20T01:41:48.892Z,1005.95
2017-07-20T01:42:57.854Z,1005.88
2017-07-20T01:44:06.816Z,1005.88
2017-07-20T01:45:16.101Z,1005.92
2017-07-20T01:46:25.062Z,1005.93
2017-07-20T01:47:34.038Z,1005.91
2017-07-20T01:48:42.996Z,1005.89
2017-07-20T01:49:51.958Z,1005.95
2017-07-20T01:51:00.917Z,1005.98
2017-07-20T01:52:09.882Z,1005.97
2017-07-20T01:53:18.847Z,1005.93
2017-07-20T01:54:27.806Z,1005.91
2017-07-20T01:55:36.781Z,1005.91
2017-07-20T01:56:45.746Z,1005.91
2017-07-20T01:57:54.698Z,1005.87
2017-07-20T01:59:03.657Z,1005.75
2017-07-20T02:00:12.612Z,1005.73
2017-07-20T02:01:21.581Z,1005.78
2017-07-20T02:02:30.544Z,1005.76
2017-07-20T02:03:39.512Z,1005.69
2017-07-20T02:04:48.807Z,1005.79
2017-07-20T02:05:58.100Z,1005.91
2017-07-20T02:07:07.057Z,1006
2017-07-20T02:08:16.022Z,1006.01
2017-07-20T02:09:24.981Z,1006.06
2017-07-20T02:10:33.948Z,1006.05
2017-07-20T02:11:42.922Z,1006.09
2017-07-20T02:12:51.879Z,1006.12
2017-07-20T02:14:00.836Z,1006.22
2017-07-20T02:15:09.814Z,1006.21
2017-07-20T02:16:18.773Z,1006.24
2017-07-20T02:17:27.732Z,1006.3
2017-07-20T02:18:36.696Z,1006.31
2017-07-20T02:19:45.651Z,1006.31
2017-07-20T02:20:54.607Z,1006.23
2017-07-20T02:22:03.570Z,1006.21
2017-07-20T02:23:12.533Z,1006.19
2017-07-20T02:24:21.496Z,1006.15
2017-07-20T02:25:30.461Z,1006.17
2017-07-20T02:26:39.423Z,1006.13
2017-07-20T02:27:48.381Z,1006.11
2017-07-20T02:28:57.336Z,1006.07
2017-07-20T02:30:06.305Z,1006.03
2017-07-20T02:31:15.313Z,1005.92
2017-07-20T02:32:24.272Z,1005.84
2017-07-20T02:33:33.248Z,1005.74
2017-07-20T02:34:42.206Z,1005.71
2017-07-20T02:35:51.214Z,1005.64
2017-07-20T02:37:00.176Z,1005.68
2017-07-20T02:38:09.462Z,1005.65
2017-07-20T02:39:18.736Z,1005.65
2017-07-20T02:40:27.699Z,1005.6
2017-07-20T02:41:36.676Z,1005.6
2017-07-20T02:42:45.645Z,1005.58
2017-07-20T02:43:54.606Z,1005.53
2017-07-20T02:45:03.560Z,1005.46
2017-07-20T02:46:12.522Z,1005.5
2017-07-20T02:47:21.478Z,1005.48
2017-07-20T02:48:30.444Z,1005.5
2017-07-20T02:49:39.412Z,1005.46
2017-07-20T02:50:48.371Z,1005.51
2017-07-20T02:51:57.332Z,1005.54
2017-07-20T02:53:06.295Z,1005.55
2017-07-20T02:54:15.257Z,1005.55
2017-07-20T02:55:24.225Z,1005.56
2017-07-20T02:56:33.192Z,1005.54
2017-07-20T02:57:42.162Z,1005.57
2017-07-20T02:58:51.113Z,1005.56
2017-07-20T03:00:00.077Z,1005.61
2017-07-20T03:01:09.042Z,1005.6
2017-07-20T03:02:17.998Z,1005.6
2017-07-20T03:03:26.960Z,1005.66
2017-07-20T03:04:35.919Z,1005.66
2017-07-20T03:05:44.878Z,1005.67
2017-07-20T03:06:53.851Z,1005.71
2017-07-20T03:08:02.812Z,1005.68
2017-07-20T03:09:11.779Z,1005.7
2017-07-20T03:10:20.748Z,1005.76
2017-07-20T03:11:29.725Z,1005.75
2017-07-20T03:12:38.687Z,1005.76
2017-07-20T03:13:47.647Z,1005.72
2017-07-20T03:14:56.611Z,1005.74
2017-07-20T03:16:05.579Z,1005.71
2017-07-20T03:17:14.541Z,1005.7
2017-07-20T03:18:23.508Z,1005.69
2017-07-20T03:19:32.471Z,1005.77
2017-07-20T03:20:41.421Z,1005.77
2017-07-20T03:21:50.383Z,1005.83
2017-07-20T03:22:59.348Z,1005.88
2017-07-20T03:24:08.313Z,1005.87
2017-07-20T03:25:17.597Z,1005.86
2017-07-20T03:26:26.553Z,1005.79
2017-07-20T03:27:35.513Z,1005.77
2017-07-20T03:28:44.795Z,1005.77
2017-07-20T03:29:53.756Z,1005.79
2017-07-20T03:31:02.716Z,1005.76
2017-07-20T03:32:11.694Z,1005.79
2017-07-20T03:33:20.649Z,1005.79
2017-07-20T03:34:29.604Z,1005.84
2017-07-20T03:35:38.569Z,1005.8
2017-07-20T03:36:47.526Z,1005.87
2017-07-20T03:37:56.489Z,1005.86
2017-07-20T03:39:05.767Z,1005.89
2017-07-20T03:40:14.733Z,1005.87
2017-07-20T03:41:23.698Z,1005.9
2017-07-20T03:42:32.658Z,1005.93
2017-07-20T03:43:41.616Z,1005.9
2017-07-20T03:44:50.574Z,1005.89
2017-07-20T03:45:59.532Z,1005.91
2017-07-20T03:47:08.504Z,1005.91
2017-07-20T03:48:17.460Z,1005.85
2017-07-20T03:49:26.413Z,1005.88
2017-07-20T03:50:35.372Z,1005.89
2017-07-20T03:51:44.328Z,1005.89
2017-07-20T03:52:53.278Z,1005.9
2017-07-20T03:54:02.248Z,1005.88
2017-07-20T03:55:11.207Z,1005.87
2017-07-20T03:56:20.174Z,1005.84
2017-07-20T03:57:29.132Z,1005.85
2017-07-20T03:58:38.420Z,1005.85
2017-07-20T03:59:47.383Z,1005.84
2017-07-20T04:00:56.675Z,1005.79
2017-07-20T04:02:05.639Z,1005.76
2017-07-20T04:03:14.606Z,1005.72
2017-07-20T04:04:23.564Z,1005.76
2017-07-20T04:05:32.523Z,1005.69
2017-07-20T04:06:41.827Z,1005.65
2017-07-20T04:07:50.789Z,1005.7
2017-07-20T04:09:00.394Z,1005.71
2017-07-20T04:10:09.380Z,1005.64
2017-07-20T04:11:18.652Z,1005.62
2017-07-20T04:12:27.620Z,1005.63
2017-07-20T04:13:36.577Z,1005.63
2017-07-20T04:14:45.533Z,1005.65
2017-07-20T04:15:54.493Z,1005.64
2017-07-20T04:17:03.770Z,1005.6
2017-07-20T04:18:12.731Z,1005.63
2017-07-20T04:19:21.693Z,1005.59
2017-07-20T04:20:30.650Z,1005.65
2017-07-20T04:21:39.631Z,1005.64
2017-07-20T04:22:48.587Z,1005.64
2017-07-20T04:23:57.554Z,1005.69
2017-07-20T04:25:06.836Z,1005.7
2017-07-20T04:26:15.798Z,1005.7
2017-07-20T04:27:24.760Z,1005.74
2017-07-20T04:28:34.039Z,1005.73
2017-07-20T04:29:43.007Z,1005.71
2017-07-20T04:30:51.961Z,1005.73
2017-07-20T04:32:00.922Z,1005.74
2017-07-20T04:33:09.893Z,1005.79
2017-07-20T04:34:18.848Z,1005.75
2017-07-20T04:35:27.805Z,1005.76
2017-07-20T04:36:36.761Z,1005.73
2017-07-20T04:37:45.721Z,1005.75
2017-07-20T04:38:54.679Z,1005.73
2017-07-20T04:40:03.649Z,1005.72
2017-07-20T04:41:12.603Z,1005.67
2017-07-20T04:42:21.567Z,1005.55
2017-07-20T04:43:30.523Z,1005.45
2017-07-20T04:44:39.478Z,1005.33
2017-07-20T04:45:48.432Z,1005.38
2017-07-20T04:46:57.399Z,1005.37
2017-07-20T04:48:06.357Z,1005.39
2017-07-20T04:49:15.320Z,1005.43
2017-07-20T04:50:24.283Z,1005.43
2017-07-20T04:51:33.264Z,1005.42
2017-07-20T04:52:42.224Z,1005.4
2017-07-20T04:53:51.183Z,1005.41
2017-07-20T04:55:00.142Z,1005.44
2017-07-20T04:56:09.105Z,1005.37
2017-07-20T04:57:18.069Z,1005.33
2017-07-20T04:58:27.027Z,1005.27
2017-07-20T04:59:35.998Z,1005.3
2017-07-20T05:00:44.964Z,1005.28
2017-07-20T05:01:53.922Z,1005.3
2017-07-20T05:03:02.884Z,1005.35
2017-07-20T05:04:11.863Z,1005.33
2017-07-20T05:05:20.821Z,1005.35
2017-07-20T05:06:30.113Z,1005.27
2017-07-20T05:07:39.728Z,1005.09
2017-07-20T05:08:49.010Z,1005.06
2017-07-20T05:09:57.978Z,1005
2017-07-20T05:11:06.937Z,1005
2017-07-20T05:12:15.900Z,1005.06
2017-07-20T05:13:25.513Z,1005.15
2017-07-20T05:14:34.489Z,1005.24
2017-07-20T05:15:43.781Z,1005.24
2017-07-20T05:16:52.744Z,1005.26
2017-07-20T05:18:01.708Z,1005.32
2017-07-20T05:19:10.672Z,1005.36
2017-07-20T05:20:19.630Z,1005.36
2017-07-20T05:21:28.589Z,1005.42
2017-07-20T05:22:37.549Z,1005.37
2017-07-20T05:23:46.511Z,1005.39
2017-07-20T05:24:55.472Z,1005.4
2017-07-20T05:26:04.751Z,1005.21
2017-07-20T05:27:13.722Z,1005.11
2017-07-20T05:28:23.016Z,1005.01
2017-07-20T05:29:31.985Z,1004.97
2017-07-20T05:30:40.938Z,1005.07
2017-07-20T05:31:50.237Z,1005.13
2017-07-20T05:32:59.530Z,1005.21
2017-07-20T05:34:08.491Z,1005.22
2017-07-20T05:35:17.454Z,1005.18
2017-07-20T05:36:26.748Z,1005.18
2017-07-20T05:37:36.034Z,1005.23
2017-07-20T05:38:44.996Z,1005.17
2017-07-20T05:39:53.955Z,1005.18
2017-07-20T05:41:02.924Z,1005.33
2017-07-20T05:42:11.881Z,1005.28
2017-07-20T05:43:20.851Z,1005.33
2017-07-20T05:44:29.812Z,1005.38
2017-07-20T05:45:38.772Z,1005.43
2017-07-20T05:46:47.721Z,1005.08
2017-07-20T05:47:56.674Z,1005.05
2017-07-20T05:49:05.629Z,1005.06
2017-07-20T05:50:14.599Z,1005.05
2017-07-20T05:51:23.587Z,1005
2017-07-20T05:52:32.544Z,1005.03
2017-07-20T05:53:41.508Z,1005.06
2017-07-20T05:54:50.467Z,1005.12
2017-07-20T05:55:59.754Z,1005.08
2017-07-20T05:57:09.039Z,1005.08
2017-07-20T05:58:18.342Z,1005.08
2017-07-20T05:59:27.323Z,1005.04
2017-07-20T06:00:36.339Z,1005.03
2017-07-20T06:01:45.302Z,1005.07
2017-07-20T06:02:54.258Z,1005.05
2017-07-20T06:04:03.216Z,1005.03
2017-07-20T06:05:12.168Z,1005.05
2017-07-20T06:06:21.121Z,1005.07
2017-07-20T06:07:30.081Z,1005.08
2017-07-20T06:08:39.067Z,1005.04
2017-07-20T06:09:48.048Z,1005.05
2017-07-20T06:10:57.017Z,1005.05
2017-07-20T06:12:05.983Z,1005.09
2017-07-20T06:13:15.268Z,1005.16
2017-07-20T06:14:24.241Z,1005.18
2017-07-20T06:15:33.203Z,1005.24
2017-07-20T06:16:42.168Z,1005.19
2017-07-20T06:17:51.464Z,1005.23
2017-07-20T06:19:00.426Z,1005.17
2017-07-20T06:20:09.389Z,1005.19
2017-07-20T06:21:18.687Z,1005.18
2017-07-20T06:22:27.647Z,1005.12
2017-07-20T06:23:36.606Z,1005.1
2017-07-20T06:24:45.562Z,1005.07
2017-07-20T06:25:54.524Z,1005.09
2017-07-20T06:27:03.489Z,1005.11
2017-07-20T06:28:12.453Z,1005.09
2017-07-20T06:29:21.413Z,1005.1
2017-07-20T06:30:30.373Z,1005.04
2017-07-20T06:31:39.341Z,1005.01
2017-07-20T06:32:48.299Z,1005.01
2017-07-20T06:33:57.262Z,1005.03
2017-07-20T06:35:06.236Z,1005.04
2017-07-20T06:36:15.227Z,1005.02
2017-07-20T06:37:24.185Z,1005.08
2017-07-20T06:38:33.146Z,1004.98
2017-07-20T06:39:42.110Z,1005.02
2017-07-20T06:40:51.079Z,1004.97
2017-07-20T06:42:00.038Z,1004.96
2017-07-20T06:43:09.011Z,1004.91
2017-07-20T06:44:17.977Z,1004.93
2017-07-20T06:45:27.264Z,1004.91
2017-07-20T06:46:36.224Z,1004.93
2017-07-20T06:47:45.262Z,1004.93
2017-07-20T06:48:54.270Z,1004.87
2017-07-20T06:50:03.230Z,1004.93
2017-07-20T06:51:12.186Z,1004.87
2017-07-20T06:52:21.171Z,1004.87
2017-07-20T06:53:30.224Z,1004.82
2017-07-20T06:54:39.376Z,1004.83
2017-07-20T06:55:48.347Z,1004.82
2017-07-20T06:56:57.327Z,1004.78
2017-07-20T06:58:06.534Z,1004.8
2017-07-20T06:59:15.540Z,1004.78
2017-07-20T07:00:24.533Z,1004.79
2017-07-20T07:01:33.490Z,1004.79
2017-07-20T07:02:42.771Z,1004.76
2017-07-20T07:03:51.852Z,1004.72
2017-07-20T07:05:00.815Z,1004.69
2017-07-20T07:06:09.857Z,1004.68
2017-07-20T07:07:18.874Z,1004.69
2017-07-20T07:08:27.836Z,1004.69
2017-07-20T07:09:36.865Z,1004.68
2017-07-20T07:10:46.170Z,1004.69
2017-07-20T07:11:55.161Z,1004.72
2017-07-20T07:13:04.139Z,1004.68
2017-07-20T07:14:13.133Z,1004.66
2017-07-20T07:15:22.132Z,1004.67
2017-07-20T07:16:31.216Z,1004.64
2017-07-20T07:17:40.263Z,1004.64
2017-07-20T07:18:49.611Z,1004.65
2017-07-20T07:19:58.588Z,1004.68
2017-07-20T07:21:07.588Z,1004.69
2017-07-20T07:22:16.647Z,1004.69
2017-07-20T07:23:25.627Z,1004.65
2017-07-20T07:24:34.718Z,1004.61
2017-07-20T07:25:43.852Z,1004.61
2017-07-20T07:26:52.914Z,1004.65
2017-07-20T07:28:02.330Z,1004.68
2017-07-20T07:29:11.347Z,1004.66
2017-07-20T07:30:20.355Z,1004.69
2017-07-20T07:31:29.404Z,1004.73
2017-07-20T07:32:38.599Z,1004.68
2017-07-20T07:33:47.887Z,1004.7
2017-07-20T07:34:56.856Z,1004.71
2017-07-20T07:36:05.870Z,1004.73
2017-07-20T07:37:14.991Z,1004.73
2017-07-20T07:38:24.063Z,1004.77
2017-07-20T07:39:33.128Z,1004.76
2017-07-20T07:40:42.146Z,1004.8
2017-07-20T07:41:51.104Z,1004.79
2017-07-20T07:43:00.349Z,1004.85
2017-07-20T07:44:09.630Z,1004.83
2017-07-20T07:45:18.925Z,1004.84
2017-07-20T07:46:28.188Z,1004.85
2017-07-20T07:47:37.449Z,1004.86
2017-07-20T07:48:46.424Z,1004.88
2017-07-20T07:49:55.386Z,1004.87
2017-07-20T07:51:04.343Z,1004.85
2017-07-20T07:52:13.312Z,1004.83
2017-07-20T07:53:22.277Z,1004.84
2017-07-20T07:54:31.238Z,1004.86
2017-07-20T07:55:40.198Z,1004.85
2017-07-20T07:56:49.161Z,1004.79
2017-07-20T07:57:58.121Z,1004.83
2017-07-20T07:59:07.085Z,1004.8
2017-07-20T08:00:16.049Z,1004.8
2017-07-20T08:01:25.011Z,1004.73
2017-07-20T08:02:33.974Z,1004.79
2017-07-20T08:03:42.940Z,1004.79
2017-07-20T08:04:51.908Z,1004.8
2017-07-20T08:06:00.867Z,1004.85
2017-07-20T08:07:09.834Z,1004.85
2017-07-20T08:08:18.798Z,1004.82
2017-07-20T08:09:27.768Z,1004.82
2017-07-20T08:10:37.054Z,1004.84
2017-07-20T08:11:49.012Z,1004.86
2017-07-20T08:12:57.972Z,1004.87
2017-07-20T08:14:06.927Z,1004.81
2017-07-20T08:15:15.887Z,1004.84
2017-07-20T08:16:24.845Z,1004.84
2017-07-20T08:17:33.810Z,1004.81
2017-07-20T08:18:42.775Z,1004.81
2017-07-20T08:19:51.736Z,1004.76
2017-07-20T08:21:00.693Z,1004.73
2017-07-20T08:22:09.652Z,1004.8
2017-07-20T08:23:18.599Z,1004.79
2017-07-20T08:24:27.905Z,1004.78
2017-07-20T08:25:36.859Z,1004.8
2017-07-20T08:26:45.815Z,1004.79
2017-07-20T08:27:54.770Z,1004.84
2017-07-20T08:29:03.728Z,1004.84
2017-07-20T08:30:12.683Z,1004.88
2017-07-20T08:31:21.637Z,1004.92
2017-07-20T08:32:30.598Z,1004.83
2017-07-20T08:33:39.576Z,1004.86
2017-07-20T08:34:48.539Z,1004.85
2017-07-20T08:35:57.494Z,1004.8
2017-07-20T08:37:06.456Z,1004.82
2017-07-20T08:38:15.413Z,1004.83
2017-07-20T08:39:24.371Z,1004.81
2017-07-20T08:40:33.325Z,1004.85
2017-07-20T08:41:42.282Z,1004.86
2017-07-20T08:42:51.248Z,1004.85
2017-07-20T08:44:00.213Z,1004.84
2017-07-20T08:45:09.174Z,1004.77
2017-07-20T08:46:18.144Z,1004.74
2017-07-20T08:47:27.102Z,1004.79
2017-07-20T08:48:36.051Z,1004.79
2017-07-20T08:49:45.015Z,1004.78
2017-07-20T08:50:53.987Z,1004.83
2017-07-20T08:52:02.947Z,1004.83
2017-07-20T08:53:11.907Z,1004.79
2017-07-20T08:54:20.858Z,1004.92
2017-07-20T08:55:29.824Z,1004.91
2017-07-20T08:56:39.108Z,1004.85
2017-07-20T08:57:48.069Z,1004.84
2017-07-20T08:58:57.057Z,1004.86
2017-07-20T09:00:06.022Z,1004.88
2017-07-20T09:01:15.301Z,1004.85
2017-07-20T09:02:24.254Z,1004.84
2017-07-20T09:03:33.218Z,1004.76
2017-07-20T09:04:42.188Z,1004.78
2017-07-20T09:05:51.157Z,1004.79
2017-07-20T09:07:00.130Z,1004.78
2017-07-20T09:08:09.087Z,1004.75
2017-07-20T09:09:18.377Z,1004.77
2017-07-20T09:10:27.343Z,1004.75
2017-07-20T09:11:36.304Z,1004.75
2017-07-20T09:12:45.266Z,1004.77
2017-07-20T09:13:54.233Z,1004.79
2017-07-20T09:15:03.197Z,1004.82
2017-07-20T09:16:12.160Z,1004.8
2017-07-20T09:17:21.117Z,1004.83
2017-07-20T09:18:30.071Z,1004.84
2017-07-20T09:19:39.031Z,1004.86
2017-07-20T09:20:47.992Z,1004.81
2017-07-20T09:21:56.950Z,1004.82
2017-07-20T09:23:06.239Z,1004.85
2017-07-20T09:24:15.199Z,1004.86
2017-07-20T09:25:24.160Z,1004.85
2017-07-20T09:26:33.119Z,1004.8
2017-07-20T09:27:42.459Z,1004.84
2017-07-20T09:28:52.694Z,1004.83
2017-07-20T09:30:02.677Z,1004.86
2017-07-20T09:31:12.366Z,1004.86
2017-07-20T09:32:21.323Z,1004.91
2017-07-20T09:33:30.292Z,1004.83
2017-07-20T09:34:39.260Z,1004.86
2017-07-20T09:35:48.541Z,1004.85
2017-07-20T09:36:57.500Z,1004.83
2017-07-20T09:38:06.483Z,1004.84
2017-07-20T09:39:15.472Z,1004.84
2017-07-20T09:40:24.462Z,1004.89
2017-07-20T09:41:33.452Z,1004.87
2017-07-20T09:42:42.428Z,1004.9
2017-07-20T09:43:51.409Z,1004.91
2017-07-20T09:45:00.390Z,1004.9
2017-07-20T09:46:09.356Z,1004.88
2017-07-20T09:47:18.319Z,1004.99
2017-07-20T09:48:27.291Z,1004.83
2017-07-20T09:49:36.242Z,1004.88
2017-07-20T09:50:45.202Z,1004.83
2017-07-20T09:51:54.170Z,1004.81
2017-07-20T09:53:03.145Z,1004.79
2017-07-20T09:54:12.099Z,1004.81
2017-07-20T09:55:21.065Z,1004.73
2017-07-20T09:56:30.027Z,1004.69
2017-07-20T09:57:38.993Z,1004.74
2017-07-20T09:58:47.959Z,1004.73
2017-07-20T09:59:56.920Z,1004.73
2017-07-20T10:01:05.872Z,1004.68
2017-07-20T10:02:14.835Z,1004.73
2017-07-20T10:03:23.799Z,1004.64
2017-07-20T10:04:32.767Z,1004.59
2017-07-20T10:05:41.730Z,1004.6
2017-07-20T10:06:50.690Z,1004.59
2017-07-20T10:07:59.658Z,1004.55
2017-07-20T10:09:08.944Z,1004.58
2017-07-20T10:10:17.939Z,1004.58
2017-07-20T10:11:26.899Z,1004.59
2017-07-20T10:12:35.863Z,1004.6
2017-07-20T10:13:45.165Z,1004.61
2017-07-20T10:14:54.176Z,1004.59
2017-07-20T10:16:03.136Z,1004.58
2017-07-20T10:17:12.096Z,1004.58
2017-07-20T10:18:21.060Z,1004.62
2017-07-20T10:19:30.042Z,1004.61
2017-07-20T10:20:39.021Z,1004.62
2017-07-20T10:21:48.085Z,1004.59
2017-07-20T10:22:57.074Z,1004.56
2017-07-20T10:24:06.054Z,1004.57
2017-07-20T10:25:15.015Z,1004.59
2017-07-20T10:26:23.985Z,1004.58
2017-07-20T10:27:32.950Z,1004.54
2017-07-20T10:28:41.922Z,1004.62
2017-07-20T10:29:50.881Z,1004.58
2017-07-20T10:30:59.839Z,1004.6
2017-07-20T10:32:08.796Z,1004.56
2017-07-20T10:33:17.745Z,1004.54
2017-07-20T10:34:26.711Z,1004.55
2017-07-20T10:35:35.668Z,1004.51
2017-07-20T10:36:44.629Z,1004.55
2017-07-20T10:37:53.585Z,1004.54
2017-07-20T10:39:02.544Z,1004.51
2017-07-20T10:40:11.497Z,1004.48
2017-07-20T10:41:20.453Z,1004.53
2017-07-20T10:42:29.413Z,1004.52
2017-07-20T10:43:38.386Z,1004.52
2017-07-20T10:44:47.348Z,1004.52
2017-07-20T10:45:56.318Z,1004.53
2017-07-20T10:47:05.287Z,1004.53
2017-07-20T10:48:14.254Z,1004.49
2017-07-20T10:49:23.218Z,1004.54
2017-07-20T10:50:32.169Z,1004.53
2017-07-20T10:51:41.134Z,1004.55
2017-07-20T10:52:50.094Z,1004.52
2017-07-20T10:53:59.067Z,1004.54
2017-07-20T10:55:08.031Z,1004.48
2017-07-20T10:56:16.985Z,1004.49
2017-07-20T10:57:25.944Z,1004.52
2017-07-20T10:58:35.231Z,1004.51
2017-07-20T10:59:44.188Z,1004.46
2017-07-20T11:00:53.150Z,1004.48
2017-07-20T11:02:02.116Z,1004.46
2017-07-20T11:03:11.087Z,1004.46
2017-07-20T11:04:20.046Z,1004.48
2017-07-20T11:05:29.014Z,1004.41
2017-07-20T11:06:37.979Z,1004.36
2017-07-20T11:07:46.944Z,1004.4
2017-07-20T11:08:55.896Z,1004.43
2017-07-20T11:10:04.877Z,1004.45
2017-07-20T11:11:13.872Z,1004.4
2017-07-20T11:12:22.969Z,1004.41
2017-07-20T11:13:31.948Z,1004.37
2017-07-20T11:14:40.933Z,1004.33
2017-07-20T11:15:49.922Z,1004.34
2017-07-20T11:16:58.912Z,1004.3
2017-07-20T11:18:07.910Z,1004.4
2017-07-20T11:19:16.899Z,1004.34
2017-07-20T11:20:25.878Z,1004.37
2017-07-20T11:21:34.856Z,1004.31
2017-07-20T11:22:43.831Z,1004.3
2017-07-20T11:23:52.823Z,1004.27
2017-07-20T11:25:01.808Z,1004.32
2017-07-20T11:26:11.536Z,1004.26
2017-07-20T11:27:20.516Z,1004.35
2017-07-20T11:28:29.496Z,1004.33
2017-07-20T11:29:38.480Z,1004.31
2017-07-20T11:30:47.461Z,1004.3
2017-07-20T11:31:56.439Z,1004.36
2017-07-20T11:33:05.411Z,1004.38
2017-07-20T11:34:14.393Z,1004.42
2017-07-20T11:35:23.383Z,1004.42
2017-07-20T11:36:32.369Z,1004.41
2017-07-20T11:37:41.353Z,1004.39
2017-07-20T11:38:50.335Z,1004.39
2017-07-20T11:39:59.322Z,1004.34
2017-07-20T11:41:08.299Z,1004.33
2017-07-20T11:42:17.290Z,1004.34
2017-07-20T11:43:26.265Z,1004.35
2017-07-20T11:44:35.245Z,1004.4
2017-07-20T11:45:44.226Z,1004.33
2017-07-20T11:46:53.212Z,1004.33
2017-07-20T11:48:02.189Z,1004.32
2017-07-20T11:49:11.167Z,1004.34
2017-07-20T11:50:20.137Z,1004.31
2017-07-20T11:51:29.333Z,1004.26
2017-07-20T11:52:40.225Z,1004.19
2017-07-20T11:53:49.181Z,1004.18
2017-07-20T11:54:58.553Z,1004.12
2017-07-20T11:56:07.520Z,1004.15
2017-07-20T11:57:16.489Z,1004.21
2017-07-20T11:58:25.776Z,1004.17
2017-07-20T11:59:34.762Z,1004.2
2017-07-20T12:00:45.109Z,1004.21
2017-07-20T12:01:54.072Z,1004.14
2017-07-20T12:03:03.038Z,1004.24
2017-07-20T12:04:11.991Z,1004.21
2017-07-20T12:05:20.955Z,1004.24
2017-07-20T12:06:29.917Z,1004.21
2017-07-20T12:07:39.629Z,1004.19
2017-07-20T12:08:48.605Z,1004.23
2017-07-20T12:09:57.585Z,1004.16
2017-07-20T12:11:06.567Z,1004.19
2017-07-20T12:12:15.537Z,1004.22
2017-07-20T12:13:24.507Z,1004.23
2017-07-20T12:14:33.459Z,1004.25
2017-07-20T12:15:42.424Z,1004.28
2017-07-20T12:16:51.690Z,1004.28
2017-07-20T12:18:03.882Z,1004.28
2017-07-20T12:19:15.766Z,1004.29
2017-07-20T12:20:25.059Z,1004.29
2017-07-20T12:21:34.338Z,1004.28
2017-07-20T12:22:43.940Z,1004.29
2017-07-20T12:23:52.900Z,1004.29
2017-07-20T12:25:01.857Z,1004.25
2017-07-20T12:26:10.846Z,1004.24
2017-07-20T12:27:19.942Z,1004.25
2017-07-20T12:28:28.981Z,1004.27
2017-07-20T12:29:38.034Z,1004.3
2017-07-20T12:30:47.010Z,1004.25
2017-07-20T12:31:57.363Z,1004.28
2017-07-20T12:33:18.624Z,1004.21
2017-07-20T12:34:35.589Z,1004.1
2017-07-20T12:35:44.547Z,1004.14
2017-07-20T12:36:53.832Z,1004.08
2017-07-20T12:38:02.800Z,1004.08
2017-07-20T12:39:11.763Z,1004.09
2017-07-20T12:40:20.729Z,1004.09
2017-07-20T12:41:30.009Z,1004.11
2017-07-20T12:42:38.973Z,1004.13
2017-07-20T12:43:47.938Z,1004.12
2017-07-20T12:44:57.281Z,1004.13
2017-07-20T12:46:06.246Z,1004.15
2017-07-20T12:47:15.213Z,1004.12
2017-07-20T12:48:24.172Z,1004.12
2017-07-20T12:49:33.139Z,1004.06
2017-07-20T12:50:42.095Z,1004.07
2017-07-20T12:51:51.059Z,1004.07
2017-07-20T12:53:00.025Z,1004
2017-07-20T12:54:09.320Z,1004.02
2017-07-20T12:55:18.617Z,1003.99
2017-07-20T12:56:27.580Z,1004.02
2017-07-20T12:57:36.546Z,1004
2017-07-20T12:58:45.507Z,1004.09
2017-07-20T12:59:54.459Z,1004.06
2017-07-20T13:01:03.751Z,1004.03
2017-07-20T13:02:12.713Z,1004.02
2017-07-20T13:03:21.684Z,1004.04
2017-07-20T13:04:30.647Z,1004.06
2017-07-20T13:05:39.610Z,1004.06
2017-07-20T13:06:48.888Z,1003.99
2017-07-20T13:07:57.852Z,1003.99
2017-07-20T13:09:06.810Z,1003.94
2017-07-20T13:10:15.770Z,1003.94
2017-07-20T13:11:24.728Z,1003.92
2017-07-20T13:12:33.690Z,1003.9
2017-07-20T13:13:42.654Z,1003.85
2017-07-20T13:14:52.270Z,1003.88
2017-07-20T13:16:01.238Z,1003.86
2017-07-20T13:17:10.855Z,1003.81
2017-07-20T13:18:20.145Z,1003.88
2017-07-20T13:19:29.112Z,1003.87
2017-07-20T13:20:38.066Z,1003.84
2017-07-20T13:21:47.029Z,1003.81
2017-07-20T13:22:56.318Z,1003.8
2017-07-20T13:24:05.278Z,1003.77
2017-07-20T13:25:14.295Z,1003.79
2017-07-20T13:26:23.259Z,1003.83
2017-07-20T13:27:32.240Z,1003.84
2017-07-20T13:28:41.199Z,1003.87
2017-07-20T13:29:50.153Z,1003.89
2017-07-20T13:30:59.453Z,1003.87
2017-07-20T13:32:08.445Z,1003.9
2017-07-20T13:33:17.424Z,1003.91
2017-07-20T13:34:26.383Z,1003.87
2017-07-20T13:35:35.340Z,1003.91
2017-07-20T13:36:44.304Z,1003.9
2017-07-20T13:37:53.291Z,1003.87
2017-07-20T13:39:02.260Z,1003.89
2017-07-20T13:40:11.231Z,1003.92
2017-07-20T13:41:20.197Z,1003.93
2017-07-20T13:42:29.218Z,1003.91
2017-07-20T13:43:38.223Z,1003.9
2017-07-20T13:44:47.232Z,1003.9
2017-07-20T13:45:56.223Z,1003.88
2017-07-20T13:47:05.210Z,1003.9
2017-07-20T13:48:14.530Z,1003.92
2017-07-20T13:49:23.523Z,1003.89
2017-07-20T13:50:32.510Z,1003.91
2017-07-20T13:51:41.827Z,1003.92
2017-07-20T13:52:51.148Z,1003.9
2017-07-20T13:54:00.149Z,1003.92
2017-07-20T13:55:09.797Z,1003.98
2017-07-20T13:56:18.777Z,1003.94
2017-07-20T13:57:27.759Z,1003.94
2017-07-20T13:58:36.747Z,1003.92